createdAt,value
2019-03-11T00:00:53.912Z,75.00
2019-03-11T00:02:46.173Z,75.00
2019-03-11T00:04:38.565Z,75.70
2019-03-11T00:06:30.450Z,73.20
2019-03-11T00:08:22.548Z,72.90
2019-03-11T00:10:14.658Z,73.40
2019-03-11T00:12:06.415Z,73.10
2019-03-11T00:13:59.032Z,72.90
2019-03-11T00:15:51.319Z,73.30
2019-03-11T00:17:43.339Z,72.20
2019-03-11T00:19:35.156Z,72.60
2019-03-11T00:21:27.188Z,73.30
2019-03-11T00:23:19.351Z,71.20
2019-03-11T00:25:11.300Z,72.10
2019-03-11T00:27:03.517Z,72.60
2019-03-11T00:28:55.319Z,72.40
2019-03-11T00:30:47.289Z,72.80
2019-03-11T00:32:39.080Z,73.50
2019-03-11T00:34:31.372Z,72.80
2019-03-11T00:36:23.712Z,73.10
2019-03-11T00:38:15.781Z,73.10
2019-03-11T00:40:14.373Z,72.30
2019-03-11T00:42:06.463Z,72.00
2019-03-11T00:43:58.386Z,73.00
2019-03-11T00:45:50.288Z,71.10
2019-03-11T00:47:42.230Z,70.30
2019-03-11T00:49:34.540Z,70.40
2019-03-11T00:51:26.688Z,70.40
2019-03-11T00:53:18.533Z,66.40
2019-03-11T00:55:10.959Z,65.10
2019-03-11T00:57:02.973Z,64.00
2019-03-11T00:58:55.091Z,64.20
2019-03-11T01:00:46.887Z,62.20
2019-03-11T01:02:38.785Z,62.40
2019-03-11T01:04:30.786Z,63.00
2019-03-11T01:06:23.244Z,61.20
2019-03-11T01:08:15.344Z,61.00
2019-03-11T01:10:08.602Z,60.00
2019-03-11T01:12:00.575Z,60.10
2019-03-11T01:13:52.991Z,59.70
2019-03-11T01:15:45.205Z,60.30
2019-03-11T01:17:37.413Z,59.80
2019-03-11T01:19:29.347Z,59.90
2019-03-11T01:21:21.169Z,59.60
2019-03-11T01:23:12.997Z,59.60
2019-03-11T01:25:06.235Z,60.10
2019-03-11T01:26:58.942Z,60.60
2019-03-11T01:28:51.004Z,61.00
2019-03-11T01:30:44.497Z,59.40
2019-03-11T01:32:36.550Z,59.20
2019-03-11T01:34:28.603Z,60.60
2019-03-11T01:36:20.916Z,60.00
2019-03-11T01:38:14.441Z,60.60
2019-03-11T01:40:08.148Z,60.10
2019-03-11T01:42:00.045Z,59.30
2019-03-11T01:43:52.398Z,60.50
2019-03-11T01:45:44.232Z,60.00
2019-03-11T01:47:36.575Z,59.80
2019-03-11T01:49:29.717Z,60.20
2019-03-11T01:51:21.503Z,59.60
2019-03-11T01:53:15.224Z,60.10
2019-03-11T01:55:07.975Z,60.80
2019-03-11T01:56:59.932Z,60.50
2019-03-11T01:58:51.756Z,60.80
2019-03-11T02:00:43.788Z,60.30
2019-03-11T02:02:36.081Z,60.70
2019-03-11T02:04:28.128Z,61.20
2019-03-11T02:06:20.144Z,60.90
2019-03-11T02:08:12.229Z,60.90
2019-03-11T02:10:05.603Z,61.40
2019-03-11T02:11:57.712Z,62.20
2019-03-11T02:13:49.848Z,62.10
2019-03-11T02:15:41.846Z,62.10
2019-03-11T02:17:34.037Z,61.50
2019-03-11T02:19:26.060Z,61.90
2019-03-11T02:21:17.871Z,62.70
2019-03-11T02:23:10.068Z,61.80
2019-03-11T02:25:02.800Z,61.30
2019-03-11T02:26:54.908Z,61.20
2019-03-11T02:28:46.800Z,62.40
2019-03-11T02:30:38.597Z,62.50
2019-03-11T02:32:30.340Z,63.00
2019-03-11T02:34:23.204Z,62.30
2019-03-11T02:36:14.935Z,61.30
2019-03-11T02:38:06.772Z,61.90
2019-03-11T02:39:58.577Z,61.80
2019-03-11T02:41:50.371Z,62.30
2019-03-11T02:43:42.460Z,61.40
2019-03-11T02:45:34.481Z,62.00
2019-03-11T02:47:26.469Z,61.80
2019-03-11T02:49:18.756Z,62.40
2019-03-11T02:51:10.962Z,62.10
2019-03-11T02:53:02.938Z,62.10
2019-03-11T02:54:55.271Z,62.10
2019-03-11T02:56:48.824Z,61.80
2019-03-11T02:58:40.973Z,62.30
2019-03-11T03:00:33.020Z,61.60
2019-03-11T03:02:35.788Z,61.80
2019-03-11T03:04:32.362Z,61.70
2019-03-11T03:06:24.600Z,62.00
2019-03-11T03:08:16.899Z,62.50
2019-03-11T03:10:09.170Z,62.50
2019-03-11T03:12:01.037Z,62.40
2019-03-11T03:13:53.081Z,62.00
2019-03-11T03:15:45.233Z,62.50
2019-03-11T03:17:37.648Z,62.50
2019-03-11T03:19:29.536Z,62.20
2019-03-11T03:21:21.536Z,62.60
2019-03-11T03:23:13.524Z,63.20
2019-03-11T03:25:06.489Z,63.90
2019-03-11T03:26:58.498Z,63.40
2019-03-11T03:28:50.480Z,63.40
2019-03-11T03:30:42.326Z,63.40
2019-03-11T03:32:34.258Z,63.70
2019-03-11T03:34:26.112Z,64.10
2019-03-11T03:36:17.911Z,63.20
2019-03-11T03:38:09.808Z,63.30
2019-03-11T03:40:02.170Z,63.90
2019-03-11T03:41:54.233Z,62.50
2019-03-11T03:43:47.109Z,62.60
2019-03-11T03:45:40.180Z,63.30
2019-03-11T03:47:32.615Z,62.50
2019-03-11T03:49:24.808Z,61.60
2019-03-11T03:51:16.597Z,60.50
2019-03-11T03:53:08.428Z,60.80
2019-03-11T03:55:00.453Z,61.30
2019-03-11T03:56:54.276Z,62.20
2019-03-11T03:58:47.940Z,61.20
2019-03-11T04:00:39.883Z,59.90
2019-03-11T04:02:32.204Z,60.60
2019-03-11T04:04:24.238Z,60.90
2019-03-11T04:06:16.652Z,59.10
2019-03-11T04:08:08.785Z,59.10
2019-03-11T04:10:00.608Z,58.90
2019-03-11T04:11:52.904Z,59.60
2019-03-11T04:13:45.161Z,59.60
2019-03-11T04:15:37.285Z,59.40
2019-03-11T04:17:29.583Z,59.50
2019-03-11T04:19:21.394Z,59.50
2019-03-11T04:21:13.641Z,59.60
2019-03-11T04:23:05.505Z,59.90
2019-03-11T04:24:57.472Z,60.50
2019-03-11T04:26:50.872Z,61.00
2019-03-11T04:28:43.076Z,60.90
2019-03-11T04:30:35.155Z,61.40
2019-03-11T04:32:26.990Z,62.10
2019-03-11T04:34:18.989Z,63.20
2019-03-11T04:36:11.349Z,63.10
2019-03-11T04:38:03.288Z,63.50
2019-03-11T04:39:55.461Z,63.70
2019-03-11T04:41:47.569Z,64.10
2019-03-11T04:43:39.526Z,64.10
2019-03-11T04:45:31.791Z,64.80
2019-03-11T04:47:23.680Z,65.30
2019-03-11T04:49:16.119Z,65.50
2019-03-11T04:51:08.378Z,65.70
2019-03-11T04:53:01.825Z,65.30
2019-03-11T04:54:53.916Z,65.60
2019-03-11T04:56:45.799Z,65.50
2019-03-11T04:58:38.023Z,65.50
2019-03-11T05:00:30.859Z,65.70
2019-03-11T05:02:22.660Z,65.10
2019-03-11T05:04:14.800Z,65.10
2019-03-11T05:06:06.519Z,65.00
2019-03-11T05:07:58.292Z,65.80
2019-03-11T05:09:53.028Z,64.80
2019-03-11T05:11:44.989Z,63.70
2019-03-11T05:13:36.874Z,64.20
2019-03-11T05:15:28.660Z,62.70
2019-03-11T05:17:21.343Z,62.50
2019-03-11T05:19:13.976Z,62.00
2019-03-11T05:21:05.815Z,61.80
2019-03-11T05:22:58.102Z,63.00
2019-03-11T05:24:49.904Z,62.20
2019-03-11T05:26:41.752Z,61.50
2019-03-11T05:28:33.992Z,61.70
2019-03-11T05:30:26.218Z,60.50
2019-03-11T05:32:18.445Z,60.70
2019-03-11T05:34:10.203Z,58.80
2019-03-11T05:36:02.306Z,59.00
2019-03-11T05:37:54.339Z,58.40
2019-03-11T05:39:46.335Z,58.10
2019-03-11T05:41:38.228Z,58.40
2019-03-11T05:43:30.053Z,57.70
2019-03-11T05:45:22.220Z,57.60
2019-03-11T05:47:14.248Z,57.50
2019-03-11T05:49:06.544Z,57.00
2019-03-11T05:50:58.877Z,57.30
2019-03-11T05:52:50.887Z,57.80
2019-03-11T05:54:42.890Z,57.40
2019-03-11T05:56:35.035Z,57.10
2019-03-11T05:58:28.112Z,56.90
2019-03-11T06:00:22.452Z,56.70
2019-03-11T06:02:14.651Z,57.60
2019-03-11T06:04:06.445Z,56.70
2019-03-11T06:05:58.496Z,57.30
2019-03-11T06:07:50.277Z,56.50
2019-03-11T06:09:42.594Z,57.00
2019-03-11T06:11:34.532Z,57.10
2019-03-11T06:13:35.551Z,56.50
2019-03-11T06:15:20.198Z,57.30
2019-03-11T06:17:14.882Z,56.50
2019-03-11T06:19:07.453Z,56.30
2019-03-11T06:21:17.560Z,56.70
2019-03-11T06:23:11.072Z,56.10
2019-03-11T06:25:04.288Z,56.60
2019-03-11T06:26:56.425Z,56.70
2019-03-11T06:28:49.319Z,56.40
2019-03-11T06:30:42.020Z,56.50
2019-03-11T06:32:33.825Z,57.10
2019-03-11T06:34:25.666Z,56.70
2019-03-11T06:36:17.693Z,57.90
2019-03-11T06:38:10.780Z,57.60
2019-03-11T06:40:04.389Z,57.60
2019-03-11T06:41:56.098Z,56.80
2019-03-11T06:43:48.836Z,57.20
2019-03-11T06:45:41.259Z,57.70
2019-03-11T06:47:33.388Z,58.70
2019-03-11T06:49:25.278Z,58.60
2019-03-11T06:51:17.585Z,59.90
2019-03-11T06:53:09.890Z,60.80
2019-03-11T06:55:04.815Z,62.50
2019-03-11T06:56:56.992Z,65.50
2019-03-11T06:58:49.062Z,69.10
2019-03-11T07:00:41.200Z,71.00
2019-03-11T07:02:33.059Z,73.40
2019-03-11T07:04:25.151Z,75.80
2019-03-11T07:06:17.738Z,78.00
2019-03-11T07:08:09.892Z,80.50
2019-03-11T07:10:01.933Z,80.70
2019-03-11T07:11:54.580Z,83.00
2019-03-11T07:13:46.819Z,85.00
2019-03-11T07:15:38.755Z,88.10
2019-03-11T07:17:30.912Z,88.00
2019-03-11T07:19:22.762Z,91.20
2019-03-11T07:21:14.835Z,91.20
2019-03-11T07:23:06.963Z,89.90
2019-03-11T07:24:59.271Z,91.50
2019-03-11T07:26:51.369Z,91.80
2019-03-11T07:28:43.639Z,91.20
2019-03-11T07:31:11.099Z,92.80
2019-03-11T07:33:03.142Z,92.30
2019-03-11T07:34:55.148Z,94.20
2019-03-11T07:36:47.281Z,93.30
2019-03-11T07:38:39.720Z,93.60
2019-03-11T07:40:34.273Z,94.50
2019-03-11T07:42:29.713Z,96.10
2019-03-11T07:44:21.983Z,97.40
2019-03-11T07:46:14.151Z,95.10
2019-03-11T07:48:06.310Z,95.40
2019-03-11T07:49:58.195Z,95.40
2019-03-11T07:51:50.386Z,95.60
2019-03-11T07:53:42.870Z,96.70
2019-03-11T07:55:35.543Z,96.80
2019-03-11T07:57:27.780Z,97.00
2019-03-11T07:59:19.895Z,96.70
2019-03-11T08:01:11.984Z,96.70
2019-03-11T08:03:04.185Z,96.00
2019-03-11T08:04:56.736Z,96.10
2019-03-11T08:06:49.359Z,97.40
2019-03-11T08:08:42.216Z,97.60
2019-03-11T08:10:34.385Z,97.40
2019-03-11T08:12:27.295Z,96.10
2019-03-11T08:14:19.461Z,96.40
2019-03-11T08:16:11.676Z,96.80
2019-03-11T08:18:03.878Z,96.60
2019-03-11T08:19:56.125Z,96.70
2019-03-11T08:21:48.118Z,96.70
2019-03-11T08:23:40.213Z,96.70
2019-03-11T08:25:32.391Z,96.70
2019-03-11T08:27:24.411Z,96.60
2019-03-11T08:29:16.412Z,96.50
2019-03-11T08:31:08.416Z,96.40
2019-03-11T08:33:01.217Z,96.60
2019-03-11T08:34:53.663Z,96.50
2019-03-11T08:36:45.656Z,96.70
2019-03-11T08:38:37.913Z,96.50
2019-03-11T08:40:30.180Z,96.50
2019-03-11T08:42:22.291Z,96.50
2019-03-11T08:44:15.721Z,95.70
2019-03-11T08:46:08.112Z,96.20
2019-03-11T08:48:00.549Z,96.40
2019-03-11T08:49:52.887Z,96.40
2019-03-11T08:51:44.858Z,96.40
2019-03-11T08:53:36.812Z,95.90
2019-03-11T08:55:29.258Z,95.40
2019-03-11T08:57:21.472Z,95.50
2019-03-11T08:59:13.597Z,95.60
2019-03-11T09:01:05.855Z,94.70
2019-03-11T09:02:57.752Z,95.30
2019-03-11T09:04:49.955Z,95.40
2019-03-11T09:06:42.038Z,95.40
2019-03-11T09:08:34.193Z,94.90
2019-03-11T09:10:26.123Z,95.10
2019-03-11T09:12:18.250Z,94.90
2019-03-11T09:14:10.029Z,94.90
2019-03-11T09:16:02.416Z,95.00
2019-03-11T09:17:54.551Z,94.50
2019-03-11T09:19:46.709Z,94.70
2019-03-11T09:21:39.140Z,94.80
2019-03-11T09:23:31.680Z,94.70
2019-03-11T09:25:25.689Z,94.70
2019-03-11T09:27:17.767Z,94.40
2019-03-11T09:29:10.160Z,93.10
2019-03-11T09:31:02.494Z,93.60
2019-03-11T09:32:54.256Z,93.80
2019-03-11T09:34:46.580Z,93.60
2019-03-11T09:36:38.919Z,93.70
2019-03-11T09:38:30.961Z,93.60
2019-03-11T09:40:22.927Z,93.40
2019-03-11T09:42:15.123Z,93.60
2019-03-11T09:44:10.117Z,93.50
2019-03-11T09:46:02.457Z,93.00
2019-03-11T09:47:54.754Z,93.30
2019-03-11T09:49:47.024Z,93.10
2019-03-11T09:51:38.832Z,93.70
2019-03-11T09:53:32.816Z,93.60
2019-03-11T09:55:26.963Z,93.10
2019-03-11T09:57:18.851Z,93.10
2019-03-11T09:59:11.016Z,92.90
2019-03-11T10:01:03.285Z,93.80
2019-03-11T10:02:55.541Z,94.10
2019-03-11T10:04:47.837Z,94.60
2019-03-11T10:06:40.156Z,94.20
2019-03-11T10:08:32.442Z,94.70
2019-03-11T10:10:26.214Z,94.90
2019-03-11T10:12:18.417Z,94.90
2019-03-11T10:14:10.299Z,95.00
2019-03-11T10:16:02.681Z,95.30
2019-03-11T10:17:54.688Z,95.40
2019-03-11T10:19:47.198Z,95.20
2019-03-11T10:21:39.645Z,94.40
2019-03-11T10:23:32.557Z,95.00
2019-03-11T10:25:24.822Z,95.30
2019-03-11T10:27:17.321Z,94.40
2019-03-11T10:29:09.385Z,94.40
2019-03-11T10:31:01.798Z,94.80
2019-03-11T10:32:54.272Z,95.10
2019-03-11T10:34:46.557Z,95.20
2019-03-11T10:36:39.700Z,94.90
2019-03-11T10:38:31.737Z,95.40
2019-03-11T10:40:31.332Z,95.30
2019-03-11T10:42:23.093Z,95.50
2019-03-11T10:44:15.232Z,95.70
2019-03-11T10:46:07.628Z,94.80
2019-03-11T10:47:59.837Z,95.00
2019-03-11T10:49:52.041Z,94.90
2019-03-11T10:51:44.267Z,94.60
2019-03-11T10:53:37.591Z,94.90
2019-03-11T10:55:29.809Z,94.30
2019-03-11T10:57:21.733Z,95.00
2019-03-11T10:59:14.679Z,95.20
2019-03-11T11:01:06.784Z,94.40
2019-03-11T11:02:59.217Z,94.10
2019-03-11T11:04:51.513Z,94.90
2019-03-11T11:06:43.465Z,95.20
2019-03-11T11:08:35.674Z,94.60
2019-03-11T11:10:27.836Z,94.60
2019-03-11T11:12:20.111Z,94.30
2019-03-11T11:14:11.991Z,94.50
2019-03-11T11:16:04.405Z,93.90
2019-03-11T11:17:56.738Z,93.30
2019-03-11T11:19:50.342Z,93.70
2019-03-11T11:21:42.740Z,93.00
2019-03-11T11:23:35.241Z,92.70
2019-03-11T11:25:27.791Z,93.30
2019-03-11T11:27:19.928Z,92.80
2019-03-11T11:29:12.325Z,93.20
2019-03-11T11:31:04.499Z,93.50
2019-03-11T11:32:56.621Z,93.70
2019-03-11T11:34:49.170Z,92.80
2019-03-11T11:36:41.255Z,92.30
2019-03-11T11:38:33.738Z,91.70
2019-03-11T11:40:26.531Z,91.70
2019-03-11T11:42:18.491Z,92.10
2019-03-11T11:44:10.799Z,90.10
2019-03-11T11:46:03.055Z,90.80
2019-03-11T11:47:54.777Z,92.20
2019-03-11T11:49:46.823Z,90.80
2019-03-11T11:51:38.932Z,91.10
2019-03-11T11:53:30.856Z,89.30
2019-03-11T11:55:22.898Z,88.60
2019-03-11T11:57:15.062Z,88.40
2019-03-11T11:59:07.023Z,87.70
2019-03-11T12:00:58.917Z,88.90
2019-03-11T12:02:50.970Z,88.90
2019-03-11T12:04:43.028Z,87.70
2019-03-11T12:06:35.466Z,89.10
2019-03-11T12:08:27.621Z,90.60
2019-03-11T12:10:26.225Z,90.80
2019-03-11T12:12:19.710Z,90.80
2019-03-11T12:14:13.080Z,83.70
2019-03-11T12:16:05.558Z,83.50
2019-03-11T12:17:57.645Z,81.30
2019-03-11T12:19:49.796Z,85.80
2019-03-11T12:21:42.133Z,84.40
2019-03-11T12:23:45.645Z,85.90
2019-03-11T12:25:28.216Z,85.40
2019-03-11T12:27:20.249Z,82.40
2019-03-11T12:29:12.272Z,83.60
2019-03-11T12:31:04.712Z,81.20
2019-03-11T12:32:56.930Z,83.60
2019-03-11T12:34:50.525Z,82.60
2019-03-11T12:36:42.588Z,81.10
2019-03-11T12:38:34.681Z,85.40
2019-03-11T12:40:26.928Z,83.10
2019-03-11T12:42:18.804Z,81.30
2019-03-11T12:44:10.859Z,81.30
2019-03-11T12:46:04.253Z,85.30
2019-03-11T12:47:56.202Z,82.50
2019-03-11T12:49:48.330Z,83.30
2019-03-11T12:51:49.252Z,78.50
2019-03-11T12:53:34.379Z,80.90
2019-03-11T12:55:27.823Z,78.40
2019-03-11T12:57:20.355Z,73.60
2019-03-11T12:59:12.542Z,74.40
2019-03-11T13:01:04.712Z,75.10
2019-03-11T13:02:56.926Z,75.80
2019-03-11T13:04:49.091Z,81.40
2019-03-11T13:06:41.118Z,76.60
2019-03-11T13:08:33.041Z,71.50
2019-03-11T13:10:25.859Z,75.30
2019-03-11T13:12:18.022Z,74.60
2019-03-11T13:14:11.617Z,76.50
2019-03-11T13:16:03.585Z,73.50
2019-03-11T13:17:55.879Z,75.30
2019-03-11T13:19:47.923Z,73.90
2019-03-11T13:21:40.328Z,75.00
2019-03-11T13:23:32.479Z,73.10
2019-03-11T13:25:24.353Z,69.10
2019-03-11T13:27:16.738Z,66.60
2019-03-11T13:29:08.944Z,68.00
2019-03-11T13:31:01.305Z,67.20
2019-03-11T13:32:53.580Z,70.30
2019-03-11T13:34:46.139Z,68.10
2019-03-11T13:36:38.566Z,68.90
2019-03-11T13:38:34.352Z,66.50
2019-03-11T13:40:26.267Z,62.20
2019-03-11T13:42:18.865Z,64.80
2019-03-11T13:44:10.588Z,65.60
2019-03-11T13:46:02.831Z,63.30
2019-03-11T13:47:55.409Z,64.00
2019-03-11T13:49:47.953Z,64.60
2019-03-11T13:51:40.224Z,67.70
2019-03-11T13:53:32.384Z,64.00
2019-03-11T13:55:24.556Z,66.00
2019-03-11T13:57:16.971Z,65.60
2019-03-11T13:59:09.180Z,66.20
2019-03-11T14:01:01.551Z,66.90
2019-03-11T14:02:53.810Z,67.20
2019-03-11T14:04:45.767Z,66.70
2019-03-11T14:06:37.876Z,66.70
2019-03-11T14:08:31.457Z,66.90
2019-03-11T14:10:26.627Z,66.70
2019-03-11T14:12:18.864Z,67.30
2019-03-11T14:14:11.124Z,68.30
2019-03-11T14:16:03.233Z,68.10
2019-03-11T14:17:55.627Z,67.70
2019-03-11T14:19:47.886Z,71.30
2019-03-11T14:21:39.971Z,73.50
2019-03-11T14:23:32.122Z,74.50
2019-03-11T14:25:24.363Z,75.90
2019-03-11T14:27:16.593Z,74.80
2019-03-11T14:29:08.836Z,74.80
2019-03-11T14:31:01.026Z,72.70
2019-03-11T14:32:53.536Z,74.40
2019-03-11T14:34:46.211Z,73.10
2019-03-11T14:36:38.685Z,75.40
2019-03-11T14:38:30.889Z,72.70
2019-03-11T14:40:23.069Z,73.10
2019-03-11T14:42:15.111Z,73.50
2019-03-11T14:44:07.469Z,68.70
2019-03-11T14:45:59.934Z,69.60
2019-03-11T14:47:52.161Z,70.20
2019-03-11T14:49:44.243Z,68.90
2019-03-11T14:51:36.949Z,66.80
2019-03-11T14:53:29.294Z,65.30
2019-03-11T14:55:21.388Z,67.20
2019-03-11T14:57:13.271Z,68.90
2019-03-11T14:59:05.591Z,69.40
2019-03-11T15:00:57.651Z,69.20
2019-03-11T15:02:49.722Z,66.50
2019-03-11T15:04:42.367Z,67.90
2019-03-11T15:06:34.549Z,67.40
2019-03-11T15:08:26.493Z,68.70
2019-03-11T15:10:19.222Z,70.00
2019-03-11T15:12:11.056Z,70.40
2019-03-11T15:14:03.194Z,65.90
2019-03-11T15:15:55.496Z,64.50
2019-03-11T15:17:48.451Z,64.80
2019-03-11T15:19:40.157Z,64.20
2019-03-11T15:21:32.251Z,64.10
2019-03-11T15:23:24.364Z,63.60
2019-03-11T15:25:16.587Z,66.70
2019-03-11T15:27:10.108Z,65.50
2019-03-11T15:29:02.757Z,66.40
2019-03-11T15:30:54.467Z,68.60
2019-03-11T15:32:46.880Z,70.50
2019-03-11T15:34:39.088Z,71.70
2019-03-11T15:36:33.676Z,72.40
2019-03-11T15:38:26.195Z,73.20
2019-03-11T15:40:18.629Z,72.40
2019-03-11T15:42:13.607Z,72.40
2019-03-11T15:44:05.767Z,73.20
2019-03-11T15:45:57.915Z,74.60
2019-03-11T15:47:50.233Z,76.30
2019-03-11T15:49:42.427Z,79.60
2019-03-11T15:51:36.806Z,80.30
2019-03-11T15:53:28.528Z,82.80
2019-03-11T15:55:20.557Z,84.80
2019-03-11T15:57:12.596Z,86.80
2019-03-11T15:59:04.589Z,87.00
2019-03-11T16:00:56.788Z,86.50
2019-03-11T16:02:48.932Z,87.90
2019-03-11T16:04:41.104Z,88.40
2019-03-11T16:06:33.264Z,87.60
2019-03-11T16:08:25.716Z,88.20
2019-03-11T16:10:18.193Z,88.10
2019-03-11T16:12:10.350Z,88.30
2019-03-11T16:14:02.560Z,89.30
2019-03-11T16:15:55.028Z,88.60
2019-03-11T16:17:47.335Z,88.60
2019-03-11T16:19:39.638Z,88.20
2019-03-11T16:21:31.935Z,88.80
2019-03-11T16:23:24.097Z,89.30
2019-03-11T16:25:15.852Z,88.60
2019-03-11T16:27:08.254Z,88.30
2019-03-11T16:29:00.383Z,88.60
2019-03-11T16:30:52.416Z,88.50
2019-03-11T16:32:58.573Z,89.10
2019-03-11T16:34:42.443Z,89.70
2019-03-11T16:36:34.638Z,88.40
2019-03-11T16:38:27.039Z,89.20
2019-03-11T16:40:18.920Z,90.30
2019-03-11T16:42:11.016Z,90.10
2019-03-11T16:44:02.962Z,90.30
2019-03-11T16:45:55.140Z,90.40
2019-03-11T16:47:47.804Z,90.20
2019-03-11T16:49:40.032Z,90.90
2019-03-11T16:51:32.204Z,90.90
2019-03-11T16:53:24.387Z,91.00
2019-03-11T16:55:21.657Z,91.20
2019-03-11T16:57:13.664Z,91.40
2019-03-11T16:59:05.792Z,91.90
2019-03-11T17:01:02.444Z,91.70
2019-03-11T17:02:55.841Z,91.70
2019-03-11T17:04:47.782Z,91.30
2019-03-11T17:06:41.319Z,91.70
2019-03-11T17:08:33.689Z,92.00
2019-03-11T17:10:26.053Z,91.50
2019-03-11T17:12:18.593Z,91.60
2019-03-11T17:14:10.854Z,91.50
2019-03-11T17:16:03.089Z,91.40
2019-03-11T17:17:55.160Z,91.40
2019-03-11T17:19:47.205Z,91.60
2019-03-11T17:21:39.695Z,91.90
2019-03-11T17:23:32.275Z,91.40
2019-03-11T17:25:24.337Z,91.50
2019-03-11T17:27:16.839Z,92.40
2019-03-11T17:29:08.651Z,91.90
2019-03-11T17:31:02.336Z,91.30
2019-03-11T17:32:54.450Z,91.40
2019-03-11T17:34:46.667Z,91.50
2019-03-11T17:36:38.788Z,91.60
2019-03-11T17:38:30.555Z,91.70
2019-03-11T17:40:25.296Z,91.20
2019-03-11T17:42:18.452Z,91.00
2019-03-11T17:44:10.696Z,91.20
2019-03-11T17:46:03.061Z,91.30
2019-03-11T17:47:55.320Z,91.40
2019-03-11T17:49:47.245Z,91.00
2019-03-11T17:51:39.415Z,91.40
2019-03-11T17:53:31.668Z,91.10
2019-03-11T17:55:23.793Z,90.80
2019-03-11T17:57:16.236Z,90.90
2019-03-11T17:59:08.216Z,91.10
2019-03-11T18:01:00.853Z,90.80
2019-03-11T18:02:54.322Z,90.90
2019-03-11T18:04:46.317Z,90.90
2019-03-11T18:06:38.319Z,90.70
2019-03-11T18:08:30.178Z,90.70
2019-03-11T18:10:22.620Z,90.40
2019-03-11T18:12:14.768Z,90.70
2019-03-11T18:14:06.983Z,90.40
2019-03-11T18:15:59.107Z,90.30
2019-03-11T18:17:51.233Z,90.40
2019-03-11T18:19:43.288Z,90.50
2019-03-11T18:21:36.113Z,90.60
2019-03-11T18:23:27.843Z,90.60
2019-03-11T18:25:20.397Z,90.90
2019-03-11T18:27:12.806Z,90.90
2019-03-11T18:29:06.557Z,90.80
2019-03-11T18:30:58.554Z,90.60
2019-03-11T18:32:50.849Z,90.50
2019-03-11T18:34:43.206Z,90.80
2019-03-11T18:36:35.273Z,90.50
2019-03-11T18:38:27.579Z,90.50
2019-03-11T18:40:19.986Z,90.40
2019-03-11T18:42:12.135Z,90.40
2019-03-11T18:44:04.386Z,90.80
2019-03-11T18:45:56.555Z,90.70
2019-03-11T18:47:31.957Z,90.30
2019-03-11T18:49:24.657Z,90.50
2019-03-11T18:51:18.196Z,90.30
2019-03-11T18:53:10.497Z,90.30
2019-03-11T18:55:05.436Z,90.20
2019-03-11T18:56:59.964Z,90.30
2019-03-11T18:58:52.535Z,90.30
2019-03-11T19:00:45.062Z,90.10
2019-03-11T19:02:37.165Z,89.90
2019-03-11T19:04:29.390Z,90.00
2019-03-11T19:06:21.737Z,90.10
2019-03-11T19:08:14.632Z,89.80
2019-03-11T19:10:11.834Z,89.50
2019-03-11T19:12:04.078Z,89.60
2019-03-11T19:13:56.338Z,89.70
2019-03-11T19:15:48.424Z,89.30
2019-03-11T19:17:41.323Z,87.90
2019-03-11T19:19:45.281Z,88.30
2019-03-11T19:21:28.723Z,88.00
2019-03-11T19:23:21.770Z,87.60
2019-03-11T19:25:15.100Z,87.90
2019-03-11T19:27:08.523Z,88.20
2019-03-11T19:29:02.478Z,88.10
2019-03-11T19:30:56.768Z,87.80
2019-03-11T19:32:50.202Z,88.20
2019-03-11T19:34:44.001Z,88.20
2019-03-11T19:36:37.698Z,88.50
2019-03-11T19:38:31.210Z,88.30
2019-03-11T19:40:25.738Z,88.00
2019-03-11T19:42:20.324Z,87.40
2019-03-11T19:44:13.855Z,87.00
2019-03-11T19:46:07.421Z,87.50
2019-03-11T19:48:02.568Z,87.90
2019-03-11T19:49:57.128Z,87.50
2019-03-11T19:51:51.217Z,87.60
2019-03-11T19:53:44.782Z,88.00
2019-03-11T19:55:38.440Z,88.20
2019-03-11T19:57:32.067Z,87.70
2019-03-11T19:59:25.509Z,87.10
2019-03-11T20:01:20.357Z,87.80
2019-03-11T20:03:23.723Z,87.10
2019-03-11T20:05:10.178Z,87.70
2019-03-11T20:07:03.798Z,88.00
2019-03-11T20:08:57.375Z,87.30
2019-03-11T20:10:52.813Z,87.80
2019-03-11T20:12:47.795Z,87.30
2019-03-11T20:14:41.407Z,86.90
2019-03-11T20:16:35.111Z,86.50
2019-03-11T20:18:28.348Z,86.60
2019-03-11T20:20:22.169Z,86.80
2019-03-11T20:22:15.673Z,87.20
2019-03-11T20:24:09.081Z,87.50
2019-03-11T20:26:02.838Z,86.10
2019-03-11T20:27:56.462Z,85.90
2019-03-11T20:29:53.143Z,85.70
2019-03-11T20:31:46.793Z,85.80
2019-03-11T20:33:40.303Z,86.00
2019-03-11T20:35:34.172Z,85.70
2019-03-11T20:37:27.759Z,85.90
2019-03-11T20:39:21.257Z,86.10
2019-03-11T20:41:15.114Z,85.10
2019-03-11T20:43:08.640Z,84.70
2019-03-11T20:45:02.698Z,85.00
2019-03-11T20:46:56.800Z,84.60
2019-03-11T20:48:50.148Z,84.70
2019-03-11T20:50:43.721Z,84.10
2019-03-11T20:52:37.437Z,85.00
2019-03-11T20:54:31.286Z,84.80
2019-03-11T20:56:25.064Z,84.10
2019-03-11T20:58:18.608Z,83.90
2019-03-11T21:00:13.974Z,83.90
2019-03-11T21:02:07.870Z,83.30
2019-03-11T21:04:01.654Z,83.20
2019-03-11T21:05:56.614Z,83.30
2019-03-11T21:07:50.139Z,83.30
2019-03-11T21:09:43.951Z,82.80
2019-03-11T21:11:37.856Z,82.70
2019-03-11T21:13:31.357Z,82.80
2019-03-11T21:15:25.107Z,82.50
2019-03-11T21:17:25.630Z,82.90
2019-03-11T21:19:14.428Z,82.40
2019-03-11T21:21:07.950Z,82.30
2019-03-11T21:23:01.130Z,82.00
2019-03-11T21:24:59.605Z,81.90
2019-03-11T21:26:50.023Z,82.70
2019-03-11T21:28:43.598Z,81.90
2019-03-11T21:30:37.529Z,81.00
2019-03-11T21:32:31.076Z,81.00
2019-03-11T21:34:24.363Z,81.30
2019-03-11T21:36:17.666Z,81.30
2019-03-11T21:38:10.575Z,81.50
2019-03-11T21:40:03.073Z,81.40
2019-03-11T21:41:56.472Z,80.50
2019-03-11T21:43:48.945Z,81.20
2019-03-11T21:45:41.053Z,80.30
2019-03-11T21:47:33.491Z,80.20
2019-03-11T21:49:25.358Z,79.90
2019-03-11T21:51:17.413Z,79.90
2019-03-11T21:53:09.645Z,79.10
2019-03-11T21:55:02.136Z,79.30
2019-03-11T21:56:55.220Z,79.10
2019-03-11T21:58:47.875Z,79.10
2019-03-11T22:00:39.896Z,80.00
2019-03-11T22:02:31.948Z,79.60
2019-03-11T22:04:23.701Z,78.70
2019-03-11T22:06:15.696Z,78.50
2019-03-11T22:08:07.988Z,78.30
2019-03-11T22:10:00.379Z,78.20
2019-03-11T22:11:53.699Z,77.70
2019-03-11T22:13:45.869Z,78.40
2019-03-11T22:15:37.852Z,78.60
2019-03-11T22:17:30.065Z,79.10
2019-03-11T22:19:21.969Z,77.90
2019-03-11T22:21:14.025Z,78.40
2019-03-11T22:23:06.008Z,78.70
2019-03-11T22:24:57.868Z,78.10
2019-03-11T22:26:49.924Z,78.10
2019-03-11T22:28:42.187Z,78.40
2019-03-11T22:30:34.611Z,78.60
2019-03-11T22:32:26.434Z,78.50
2019-03-11T22:34:18.493Z,78.10
2019-03-11T22:36:10.529Z,77.60
2019-03-11T22:38:03.569Z,77.40
2019-03-11T22:39:55.255Z,78.10
2019-03-11T22:41:47.264Z,77.70
2019-03-11T22:43:39.273Z,77.70
2019-03-11T22:45:31.635Z,78.10
2019-03-11T22:47:23.956Z,76.80
2019-03-11T22:49:15.933Z,77.40
2019-03-11T22:51:08.653Z,77.10
2019-03-11T22:53:00.484Z,77.00
2019-03-11T22:54:52.480Z,76.60
2019-03-11T22:56:49.698Z,76.30
2019-03-11T22:58:42.058Z,76.30
2019-03-11T23:00:39.696Z,76.60
2019-03-11T23:02:40.166Z,77.70
2019-03-11T23:04:27.451Z,75.70
2019-03-11T23:06:19.545Z,76.70
2019-03-11T23:08:11.371Z,76.10
2019-03-11T23:10:03.900Z,76.20
2019-03-11T23:11:56.723Z,77.40
2019-03-11T23:13:48.573Z,76.20
2019-03-11T23:15:40.374Z,77.10
2019-03-11T23:17:32.165Z,76.20
2019-03-11T23:19:23.979Z,76.50
2019-03-11T23:21:15.899Z,75.50
2019-03-11T23:23:08.111Z,75.50
2019-03-11T23:25:00.347Z,75.30
2019-03-11T23:26:52.827Z,75.30
2019-03-11T23:28:44.746Z,75.70
2019-03-11T23:30:36.957Z,76.10
2019-03-11T23:32:29.887Z,76.40
2019-03-11T23:34:22.464Z,76.10
2019-03-11T23:36:14.751Z,76.60
2019-03-11T23:38:07.049Z,76.20
2019-03-11T23:39:59.103Z,76.30
2019-03-11T23:41:51.404Z,75.80
2019-03-11T23:43:43.811Z,75.50
2019-03-11T23:45:36.220Z,76.00
2019-03-11T23:47:28.418Z,75.80
2019-03-11T23:49:20.758Z,76.10
2019-03-11T23:51:12.640Z,76.20
2019-03-11T23:53:05.115Z,76.50
2019-03-11T23:54:57.115Z,76.80
2019-03-11T23:56:49.276Z,75.80
2019-03-11T23:58:41.916Z,76.00
